createdAt,value
2015-07-11T00:00:09.051Z,14.8
2015-07-11T00:00:27.429Z,14.8
2015-07-11T00:00:45.820Z,14.8
2015-07-11T00:01:04.304Z,14.7
2015-07-11T00:01:22.820Z,14.7
2015-07-11T00:01:41.447Z,14.7
2015-07-11T00:01:59.885Z,14.7
2015-07-11T00:02:18.369Z,14.7
2015-07-11T00:02:36.746Z,14.6
2015-07-11T00:02:55.183Z,14.6
2015-07-11T00:03:13.574Z,14.5
2015-07-11T00:03:32.074Z,14.5
2015-07-11T00:03:50.639Z,14.5
2015-07-11T00:04:09.201Z,14.5
2015-07-11T00:04:27.607Z,14.5
2015-07-11T00:04:45.970Z,14.5
2015-07-11T00:05:04.610Z,14.5
2015-07-11T00:05:23.595Z,14.5
2015-07-11T00:05:42.157Z,14.5
2015-07-11T00:06:00.549Z,14.5
2015-07-11T00:06:19.080Z,14.6
2015-07-11T00:06:37.580Z,14.7
2015-07-11T00:06:56.004Z,14.7
2015-07-11T00:07:14.613Z,14.6
2015-07-11T00:07:33.348Z,14.6
2015-07-11T00:07:51.723Z,14.6
2015-07-11T00:08:10.147Z,14.7
2015-07-11T00:08:28.709Z,14.7
2015-07-11T00:08:47.100Z,14.8
2015-07-11T00:09:05.696Z,14.8
2015-07-11T00:09:24.071Z,14.7
2015-07-11T00:09:42.603Z,14.7
2015-07-11T00:10:00.978Z,14.7
2015-07-11T00:10:19.636Z,14.6
2015-07-11T00:10:38.105Z,14.6
2015-07-11T00:10:56.589Z,14.6
2015-07-11T00:11:15.169Z,14.6
2015-07-11T00:11:34.450Z,14.6
2015-07-11T00:11:52.935Z,14.6
2015-07-11T00:12:11.357Z,14.6
2015-07-11T00:12:29.748Z,14.6
2015-07-11T00:12:48.186Z,14.6
2015-07-11T00:13:06.561Z,14.6
2015-07-11T00:13:24.970Z,14.6
2015-07-11T00:13:42.704Z,14.6
2015-07-11T00:14:01.517Z,14.6
2015-07-11T00:14:19.876Z,14.7
2015-07-11T00:14:38.269Z,14.6
2015-07-11T00:14:56.691Z,14.6
2015-07-11T00:15:15.160Z,14.6
2015-07-11T00:15:33.677Z,14.6
2015-07-11T00:15:52.083Z,14.6
2015-07-11T00:16:10.521Z,14.6
2015-07-11T00:16:28.880Z,14.6
2015-07-11T00:16:47.414Z,14.5
2015-07-11T00:17:06.054Z,14.5
2015-07-11T00:17:24.632Z,14.4
2015-07-11T00:17:43.009Z,14.5
2015-07-11T00:18:01.478Z,14.4
2015-07-11T00:18:20.056Z,14.5
2015-07-11T00:18:38.603Z,14.5
2015-07-11T00:18:57.105Z,14.5
2015-07-11T00:19:15.574Z,14.5
2015-07-11T00:19:34.058Z,14.5
2015-07-11T00:19:52.451Z,14.6
2015-07-11T00:20:11.123Z,14.6
2015-07-11T00:20:29.607Z,14.5
2015-07-11T00:20:48.029Z,14.4
2015-07-11T00:21:06.407Z,14.4
2015-07-11T00:21:24.907Z,14.4
2015-07-11T00:21:43.313Z,14.4
2015-07-11T00:22:01.753Z,14.5
2015-07-11T00:22:20.190Z,14.5
2015-07-11T00:22:38.909Z,14.5
2015-07-11T00:22:57.581Z,14.4
2015-07-11T00:23:16.285Z,14.3
2015-07-11T00:23:34.785Z,14.3
2015-07-11T00:23:53.363Z,14.4
2015-07-11T00:24:11.834Z,14.4
2015-07-11T00:24:30.193Z,14.4
2015-07-11T00:24:48.615Z,14.4
2015-07-11T00:25:07.021Z,14.4
2015-07-11T00:25:25.431Z,14.4
2015-07-11T00:25:43.899Z,14.3
2015-07-11T00:26:02.321Z,14.3
2015-07-11T00:26:20.776Z,14.4
2015-07-11T00:26:39.354Z,14.3
2015-07-11T00:26:57.776Z,14.3
2015-07-11T00:27:16.339Z,14.2
2015-07-11T00:27:34.871Z,14.3
2015-07-11T00:27:53.543Z,14.3
2015-07-11T00:28:12.246Z,14.4
2015-07-11T00:28:30.640Z,14.4
2015-07-11T00:28:49.030Z,14.4
2015-07-11T00:29:07.593Z,14.4
2015-07-11T00:29:26.405Z,14.4
2015-07-11T00:29:44.767Z,14.5
2015-07-11T00:30:03.220Z,14.5
2015-07-11T00:30:22.204Z,14.5
2015-07-11T00:30:40.659Z,14.5
2015-07-11T00:30:59.034Z,14.4
2015-07-11T00:31:17.472Z,14.4
2015-07-11T00:31:35.862Z,14.4
2015-07-11T00:31:54.364Z,14.4
2015-07-11T00:32:12.755Z,14.4
2015-07-11T00:32:31.364Z,14.3
2015-07-11T00:32:49.851Z,14.3
2015-07-11T00:33:08.241Z,14.2
2015-07-11T00:33:26.601Z,14.1
2015-07-11T00:33:45.132Z,14.2
2015-07-11T00:34:03.587Z,14.2
2015-07-11T00:34:22.181Z,14.2
2015-07-11T00:34:40.618Z,14.2
2015-07-11T00:34:59.042Z,14.1
2015-07-11T00:35:17.464Z,14.2
2015-07-11T00:35:35.964Z,14.2
2015-07-11T00:35:54.667Z,14.3
2015-07-11T00:36:13.247Z,14.3
2015-07-11T00:36:32.013Z,14.3
2015-07-11T00:36:50.685Z,14.3
2015-07-11T00:37:09.046Z,14.3
2015-07-11T00:37:27.812Z,14.4
2015-07-11T00:37:46.187Z,14.5
2015-07-11T00:38:04.859Z,14.5
2015-07-11T00:38:23.205Z,14.4
2015-07-11T00:38:41.626Z,14.4
2015-07-11T00:38:59.986Z,14.4
2015-07-11T00:39:18.676Z,14.5
2015-07-11T00:39:37.192Z,14.5
2015-07-11T00:39:55.754Z,14.4
2015-07-11T00:40:14.145Z,14.3
2015-07-11T00:40:32.740Z,14.4
2015-07-11T00:40:51.302Z,14.3
2015-07-11T00:41:09.662Z,14.3
2015-07-11T00:41:28.180Z,14.3
2015-07-11T00:41:46.571Z,14.3
2015-07-11T00:42:04.946Z,14.3
2015-07-11T00:42:23.321Z,14.3
2015-07-11T00:42:41.698Z,14.2
2015-07-11T00:43:00.089Z,14.2
2015-07-11T00:43:18.401Z,14.2
2015-07-11T00:43:37.059Z,14.2
2015-07-11T00:43:55.137Z,14.2
2015-07-11T00:44:13.403Z,14.1
2015-07-11T00:44:31.778Z,14.1
2015-07-11T00:44:50.217Z,14.2
2015-07-11T00:45:08.826Z,14.2
2015-07-11T00:45:27.248Z,14.1
2015-07-11T00:45:45.766Z,14.1
2015-07-11T00:46:04.266Z,14.1
2015-07-11T00:46:22.626Z,14.1
2015-07-11T00:46:41.407Z,14.1
2015-07-11T00:46:59.783Z,14.1
2015-07-11T00:47:18.205Z,14.1
2015-07-11T00:47:36.549Z,14.2
2015-07-11T00:47:54.927Z,14.2
2015-07-11T00:48:13.489Z,14.3
2015-07-11T00:48:31.958Z,14.3
2015-07-11T00:48:50.411Z,14.3
2015-07-11T00:49:08.976Z,14.3
2015-07-11T00:49:27.491Z,14.3
2015-07-11T00:49:46.069Z,14.2
2015-07-11T00:50:04.587Z,14.2
2015-07-11T00:50:23.212Z,14.2
2015-07-11T00:50:41.634Z,14.2
2015-07-11T00:51:00.103Z,14.2
2015-07-11T00:51:18.495Z,14.2
2015-07-11T00:51:37.073Z,14.1
2015-07-11T00:51:55.620Z,14.1
2015-07-11T00:52:13.983Z,14.1
2015-07-11T00:52:32.483Z,14.1
2015-07-11T00:52:51.123Z,14
2015-07-11T00:53:09.701Z,14.1
2015-07-11T00:53:28.249Z,14
2015-07-11T00:53:46.702Z,14
2015-07-11T00:54:05.234Z,14
2015-07-11T00:54:23.705Z,14
2015-07-11T00:54:42.127Z,13.9
2015-07-11T00:55:00.627Z,14
2015-07-11T00:55:19.190Z,14
2015-07-11T00:55:37.784Z,14.1
2015-07-11T00:55:56.191Z,14.1
2015-07-11T00:56:14.753Z,14.1
2015-07-11T00:56:33.724Z,14
2015-07-11T00:56:52.349Z,14.1
2015-07-11T00:57:10.755Z,14
2015-07-11T00:57:29.365Z,14
2015-07-11T00:57:47.821Z,13.9
2015-07-11T00:58:06.227Z,13.9
2015-07-11T00:58:24.649Z,13.8
2015-07-11T00:58:43.073Z,13.8
2015-07-11T00:59:01.463Z,13.8
2015-07-11T00:59:19.901Z,13.9
2015-07-11T00:59:38.260Z,13.9
2015-07-11T00:59:56.917Z,14
2015-07-11T01:00:15.386Z,14.1
2015-07-11T01:00:33.824Z,14.1
2015-07-11T01:00:52.217Z,13.9
2015-07-11T01:01:10.639Z,13.8
2015-07-11T01:01:29.030Z,13.8
2015-07-11T01:01:47.436Z,13.7
2015-07-11T01:02:05.829Z,13.7
2015-07-11T01:02:24.313Z,13.7
2015-07-11T01:02:42.719Z,13.6
2015-07-11T01:03:01.081Z,13.6
2015-07-11T01:03:18.815Z,13.6
2015-07-11T01:03:37.190Z,13.7
2015-07-11T01:03:55.565Z,13.7
2015-07-11T01:04:13.942Z,13.8
2015-07-11T01:04:32.364Z,13.8
2015-07-11T01:04:50.723Z,13.9
2015-07-11T01:05:09.086Z,13.9
2015-07-11T01:05:27.461Z,13.9
2015-07-11T01:05:45.836Z,13.9
2015-07-11T01:06:04.211Z,13.9
2015-07-11T01:06:22.571Z,13.9
2015-07-11T01:06:40.946Z,13.9
2015-07-11T01:06:59.321Z,13.9
2015-07-11T01:07:17.698Z,13.9
2015-07-11T01:07:36.073Z,13.9
2015-07-11T01:07:54.448Z,13.9
2015-07-11T01:08:12.823Z,13.9
2015-07-11T01:08:31.356Z,13.9
2015-07-11T01:08:49.700Z,13.9
2015-07-11T01:09:08.059Z,13.9
2015-07-11T01:09:26.452Z,13.9
2015-07-11T01:09:44.843Z,13.9
2015-07-11T01:10:03.233Z,13.9
2015-07-11T01:10:21.593Z,13.9
2015-07-11T01:10:39.970Z,13.9
2015-07-11T01:10:58.360Z,14
2015-07-11T01:11:16.735Z,14
2015-07-11T01:11:35.098Z,13.9
2015-07-11T01:11:53.488Z,13.9
2015-07-11T01:12:11.848Z,13.9
2015-07-11T01:12:29.566Z,13.9
2015-07-11T01:12:47.975Z,13.9
2015-07-11T01:13:06.350Z,13.9
2015-07-11T01:13:24.740Z,14
2015-07-11T01:13:43.132Z,14
2015-07-11T01:14:01.507Z,14
2015-07-11T01:14:19.882Z,14
2015-07-11T01:14:38.257Z,13.9
2015-07-11T01:14:56.651Z,13.9
2015-07-11T01:15:14.369Z,13.8
2015-07-11T01:15:32.729Z,13.8
2015-07-11T01:15:51.106Z,13.8
2015-07-11T01:16:09.481Z,13.8
2015-07-11T01:16:27.856Z,13.8
2015-07-11T01:16:46.231Z,13.8
2015-07-11T01:17:04.607Z,13.8
2015-07-11T01:17:22.982Z,13.8
2015-07-11T01:17:41.357Z,13.8
2015-07-11T01:17:59.750Z,13.8
2015-07-11T01:18:18.141Z,13.9
2015-07-11T01:18:36.516Z,13.9
2015-07-11T01:18:54.891Z,14
2015-07-11T01:19:13.268Z,14
2015-07-11T01:19:31.659Z,14.1
2015-07-11T01:19:50.034Z,14
2015-07-11T01:20:08.411Z,14
2015-07-11T01:20:26.786Z,14
2015-07-11T01:20:45.161Z,14
2015-07-11T01:21:03.536Z,14
2015-07-11T01:21:21.913Z,14
2015-07-11T01:21:40.288Z,14
2015-07-11T01:21:58.647Z,13.9
2015-07-11T01:22:17.024Z,13.9
2015-07-11T01:22:35.415Z,13.9
2015-07-11T01:22:53.774Z,13.9
2015-07-11T01:23:12.165Z,14
2015-07-11T01:23:30.557Z,14
2015-07-11T01:23:48.948Z,14
2015-07-11T01:24:07.354Z,14
2015-07-11T01:24:25.090Z,14.1
2015-07-11T01:24:42.809Z,14.1
2015-07-11T01:25:01.200Z,14.2
2015-07-11T01:25:19.590Z,14.2
2015-07-11T01:25:37.952Z,14.2
2015-07-11T01:25:56.327Z,14.2
2015-07-11T01:26:14.717Z,14.1
2015-07-11T01:26:33.094Z,14
2015-07-11T01:26:51.469Z,14
2015-07-11T01:27:09.844Z,14
2015-07-11T01:27:28.204Z,14
2015-07-11T01:27:46.596Z,14
2015-07-11T01:28:04.971Z,14
2015-07-11T01:28:23.331Z,14
2015-07-11T01:28:41.723Z,14
2015-07-11T01:29:00.083Z,14
2015-07-11T01:29:17.802Z,13.9
2015-07-11T01:29:36.177Z,13.9
2015-07-11T01:29:54.554Z,13.9
2015-07-11T01:30:12.929Z,13.9
2015-07-11T01:30:31.304Z,13.9
2015-07-11T01:30:49.681Z,13.8
2015-07-11T01:31:08.087Z,13.7
2015-07-11T01:31:26.462Z,13.7
2015-07-11T01:31:44.852Z,13.7
2015-07-11T01:32:03.229Z,13.7
2015-07-11T01:32:21.604Z,13.7
2015-07-11T01:32:39.979Z,13.7
2015-07-11T01:32:58.341Z,13.6
2015-07-11T01:33:16.716Z,13.6
2015-07-11T01:33:35.091Z,13.6
2015-07-11T01:33:53.466Z,13.6
2015-07-11T01:34:11.844Z,13.5
2015-07-11T01:34:30.234Z,13.6
2015-07-11T01:34:48.609Z,13.6
2015-07-11T01:35:06.986Z,13.6
2015-07-11T01:35:25.361Z,13.6
2015-07-11T01:35:43.752Z,13.6
2015-07-11T01:36:02.174Z,13.6
2015-07-11T01:36:20.581Z,13.6
2015-07-11T01:36:38.972Z,13.6
2015-07-11T01:36:57.362Z,13.6
2015-07-11T01:37:15.756Z,13.6
2015-07-11T01:37:34.147Z,13.6
2015-07-11T01:37:52.522Z,13.6
2015-07-11T01:38:10.881Z,13.6
2015-07-11T01:38:29.274Z,13.6
2015-07-11T01:38:47.633Z,13.5
2015-07-11T01:39:06.008Z,13.6
2015-07-11T01:39:24.385Z,13.5
2015-07-11T01:39:42.760Z,13.4
2015-07-11T01:40:01.135Z,13.4
2015-07-11T01:40:19.573Z,13.4
2015-07-11T01:40:37.965Z,13.4
2015-07-11T01:40:56.340Z,13.4
2015-07-11T01:41:14.731Z,13.4
2015-07-11T01:41:37.545Z,13.3
2015-07-11T01:41:55.920Z,13.3
2015-07-11T01:42:14.295Z,13.3
2015-07-11T01:42:32.717Z,13.3
2015-07-11T01:42:51.125Z,13.3
2015-07-11T01:43:09.500Z,13.3
2015-07-11T01:43:27.891Z,13.3
2015-07-11T01:43:46.127Z,13.3
2015-07-11T01:44:04.518Z,13.3
2015-07-11T01:44:22.909Z,13.3
2015-07-11T01:44:41.284Z,13.3
2015-07-11T01:44:59.661Z,13.4
2015-07-11T01:45:18.051Z,13.5
2015-07-11T01:45:36.426Z,13.5
2015-07-11T01:45:54.836Z,13.5
2015-07-11T01:46:13.226Z,13.5
2015-07-11T01:46:31.632Z,13.6
2015-07-11T01:46:50.023Z,13.6
2015-07-11T01:47:08.416Z,13.6
2015-07-11T01:47:26.947Z,13.6
2015-07-11T01:47:45.338Z,13.6
2015-07-11T01:48:03.870Z,13.6
2015-07-11T01:48:22.260Z,13.6
2015-07-11T01:48:40.651Z,13.7
2015-07-11T01:48:59.026Z,13.7
2015-07-11T01:49:17.403Z,13.8
2015-07-11T01:49:35.778Z,13.8
2015-07-11T01:49:54.153Z,13.8
2015-07-11T01:50:12.530Z,13.8
2015-07-11T01:50:30.905Z,13.8
2015-07-11T01:50:49.280Z,13.8
2015-07-11T01:51:07.655Z,13.8
2015-07-11T01:51:26.032Z,13.8
2015-07-11T01:51:44.407Z,13.8
2015-07-11T01:52:02.782Z,13.8
2015-07-11T01:52:21.160Z,13.7
2015-07-11T01:52:39.535Z,13.7
2015-07-11T01:52:57.910Z,13.6
2015-07-11T01:53:16.269Z,13.6
2015-07-11T01:53:34.645Z,13.6
2015-07-11T01:53:53.020Z,13.6
2015-07-11T01:54:11.411Z,13.6
2015-07-11T01:54:29.805Z,13.7
2015-07-11T01:54:48.180Z,13.7
2015-07-11T01:55:06.570Z,13.6
2015-07-11T01:55:24.977Z,13.6
2015-07-11T01:55:43.369Z,13.6
2015-07-11T01:56:01.760Z,13.7
2015-07-11T01:56:20.135Z,13.7
2015-07-11T01:56:38.777Z,13.8
2015-07-11T01:56:57.262Z,13.8
2015-07-11T01:57:15.012Z,13.7
2015-07-11T01:57:33.559Z,13.7
2015-07-11T01:57:51.983Z,13.7
2015-07-11T01:58:10.561Z,13.7
2015-07-11T01:58:28.983Z,13.7
2015-07-11T01:58:47.547Z,13.7
2015-07-11T01:59:06.297Z,13.7
2015-07-11T01:59:24.672Z,13.7
2015-07-11T01:59:43.375Z,13.7
2015-07-11T02:00:01.752Z,13.7
2015-07-11T02:00:20.330Z,13.6
2015-07-11T02:00:38.752Z,13.5
2015-07-11T02:00:57.207Z,13.5
2015-07-11T02:01:15.567Z,13.5
2015-07-11T02:01:33.973Z,13.5
2015-07-11T02:01:52.348Z,13.5
2015-07-11T02:02:10.804Z,13.5
2015-07-11T02:02:29.226Z,13.4
2015-07-11T02:02:47.663Z,13.4
2015-07-11T02:03:06.133Z,13.4
2015-07-11T02:03:24.680Z,13.5
2015-07-11T02:03:43.086Z,13.5
2015-07-11T02:04:01.696Z,13.4
2015-07-11T02:04:20.104Z,13.4
2015-07-11T02:04:38.604Z,13.4
2015-07-11T02:04:56.963Z,13.4
2015-07-11T02:05:15.466Z,13.4
2015-07-11T02:05:33.951Z,13.4
2015-07-11T02:05:52.404Z,13.5
2015-07-11T02:06:10.857Z,13.4
2015-07-11T02:06:29.249Z,13.3
2015-07-11T02:06:47.624Z,13.3
2015-07-11T02:07:06.202Z,13.2
2015-07-11T02:07:24.798Z,13.2
2015-07-11T02:07:43.267Z,13.1
2015-07-11T02:08:01.845Z,13.1
2015-07-11T02:08:20.345Z,13.1
2015-07-11T02:08:38.785Z,13.1
2015-07-11T02:08:57.144Z,13.1
2015-07-11T02:09:15.550Z,13
2015-07-11T02:09:34.021Z,12.9
2015-07-11T02:09:52.443Z,13
2015-07-11T02:10:10.802Z,12.9
2015-07-11T02:10:29.162Z,12.9
2015-07-11T02:10:47.617Z,12.9
2015-07-11T02:11:05.992Z,12.9
2015-07-11T02:11:24.414Z,12.9
2015-07-11T02:11:42.790Z,13
2015-07-11T02:12:01.290Z,13
2015-07-11T02:12:19.649Z,13
2015-07-11T02:12:38.243Z,13
2015-07-11T02:12:56.652Z,13
2015-07-11T02:13:15.043Z,13
2015-07-11T02:13:33.418Z,13.1
2015-07-11T02:13:51.935Z,13.1
2015-07-11T02:14:10.295Z,13.1
2015-07-11T02:14:28.701Z,13.1
2015-07-11T02:14:47.264Z,13.2
2015-07-11T02:15:05.812Z,13.1
2015-07-11T02:15:24.219Z,13.1
2015-07-11T02:15:42.609Z,13
2015-07-11T02:16:01.127Z,13
2015-07-11T02:16:19.627Z,13.1
2015-07-11T02:16:38.111Z,13
2015-07-11T02:16:56.502Z,13
2015-07-11T02:17:15.176Z,13.1
2015-07-11T02:17:33.566Z,13
2015-07-11T02:17:52.082Z,12.9
2015-07-11T02:18:10.506Z,12.9
2015-07-11T02:18:28.912Z,12.9
2015-07-11T02:18:47.365Z,12.9
2015-07-11T02:19:05.740Z,12.9
2015-07-11T02:19:24.133Z,12.8
2015-07-11T02:19:42.586Z,12.8
2015-07-11T02:20:00.961Z,12.9
2015-07-11T02:20:19.370Z,12.9
2015-07-11T02:20:37.886Z,12.9
2015-07-11T02:20:56.323Z,12.9
2015-07-11T02:21:14.714Z,12.9
2015-07-11T02:21:33.107Z,12.9
2015-07-11T02:21:51.544Z,12.9
2015-07-11T02:22:10.091Z,12.9
2015-07-11T02:22:28.467Z,12.9
2015-07-11T02:22:46.842Z,12.9
2015-07-11T02:23:05.248Z,13
2015-07-11T02:23:23.686Z,13
2015-07-11T02:23:42.110Z,13.1
2015-07-11T02:24:00.485Z,13.1
2015-07-11T02:24:18.953Z,13
2015-07-11T02:24:37.472Z,13
2015-07-11T02:24:55.894Z,13
2015-07-11T02:25:14.410Z,13
2015-07-11T02:25:32.910Z,13
2015-07-11T02:25:51.271Z,13
2015-07-11T02:26:09.021Z,13
2015-07-11T02:26:27.443Z,12.9
2015-07-11T02:26:47.226Z,13
2015-07-11T02:27:05.601Z,13
2015-07-11T02:27:24.273Z,13
2015-07-11T02:27:43.007Z,12.9
2015-07-11T02:28:01.447Z,12.9
2015-07-11T02:28:19.931Z,12.9
2015-07-11T02:28:38.337Z,12.9
2015-07-11T02:28:56.839Z,13
2015-07-11T02:29:15.246Z,12.9
2015-07-11T02:29:33.777Z,12.8
2015-07-11T02:29:52.418Z,12.8
2015-07-11T02:30:10.810Z,12.8
2015-07-11T02:30:29.263Z,12.9
2015-07-11T02:30:47.826Z,12.9
2015-07-11T02:31:06.422Z,12.9
2015-07-11T02:31:24.828Z,12.9
2015-07-11T02:31:43.328Z,12.8
2015-07-11T02:32:01.984Z,12.8
2015-07-11T02:32:20.517Z,12.8
2015-07-11T02:32:38.955Z,12.9
2015-07-11T02:32:57.549Z,12.9
2015-07-11T02:33:16.238Z,13
2015-07-11T02:33:34.051Z,13
2015-07-11T02:33:52.472Z,13
2015-07-11T02:34:11.019Z,13.1
2015-07-11T02:34:29.381Z,13.1
2015-07-11T02:34:48.178Z,13
2015-07-11T02:35:06.599Z,13
2015-07-11T02:35:25.164Z,13
2015-07-11T02:35:43.601Z,13
2015-07-11T02:36:01.992Z,13
2015-07-11T02:36:20.445Z,13
2015-07-11T02:36:38.823Z,13
2015-07-11T02:36:57.308Z,13
2015-07-11T02:37:15.886Z,13
2015-07-11T02:37:34.746Z,13
2015-07-11T02:37:53.277Z,13
2015-07-11T02:38:11.746Z,13
2015-07-11T02:38:30.309Z,13
2015-07-11T02:38:48.842Z,13
2015-07-11T02:39:07.295Z,13
2015-07-11T02:39:25.920Z,13
2015-07-11T02:39:44.454Z,13
2015-07-11T02:40:02.907Z,13
2015-07-11T02:40:21.267Z,13.1
2015-07-11T02:40:39.735Z,13.1
2015-07-11T02:40:58.315Z,13.1
2015-07-11T02:41:16.955Z,13.1
2015-07-11T02:41:35.361Z,13.2
2015-07-11T02:41:53.958Z,13.1
2015-07-11T02:42:12.568Z,13.1
2015-07-11T02:42:31.130Z,13.1
2015-07-11T02:42:49.849Z,13.1
2015-07-11T02:43:08.257Z,13.1
2015-07-11T02:43:26.960Z,13.2
2015-07-11T02:43:45.601Z,13.3
2015-07-11T02:44:03.978Z,13.3
2015-07-11T02:44:22.431Z,13.3
2015-07-11T02:44:41.056Z,13.3
2015-07-11T02:44:59.712Z,13.3
2015-07-11T02:45:18.324Z,13.1
2015-07-11T02:45:36.730Z,13.1
2015-07-11T02:45:55.355Z,13.1
2015-07-11T02:46:13.716Z,13.1
2015-07-11T02:46:32.122Z,13.1
2015-07-11T02:46:50.544Z,13
2015-07-11T02:47:09.091Z,13
2015-07-11T02:47:27.656Z,13
2015-07-11T02:47:46.124Z,12.9
2015-07-11T02:48:04.609Z,12.9
2015-07-11T02:48:23.017Z,12.9
2015-07-11T02:48:41.501Z,12.9
2015-07-11T02:48:59.955Z,12.9
2015-07-11T02:49:18.376Z,13
2015-07-11T02:49:36.847Z,13
2015-07-11T02:49:55.535Z,13.1
2015-07-11T02:50:14.300Z,13.1
2015-07-11T02:50:32.788Z,13.1
2015-07-11T02:50:51.256Z,13
2015-07-11T02:51:09.647Z,13
2015-07-11T02:51:28.038Z,13
2015-07-11T02:51:46.586Z,13
2015-07-11T02:52:05.007Z,12.9
2015-07-11T02:52:23.601Z,13
2015-07-11T02:52:42.042Z,12.9
2015-07-11T02:53:00.573Z,13
2015-07-11T02:53:18.964Z,12.9
2015-07-11T02:53:37.432Z,12.9
2015-07-11T02:53:55.903Z,12.9
2015-07-11T02:54:14.403Z,12.8
2015-07-11T02:54:32.872Z,12.9
2015-07-11T02:54:51.468Z,12.8
2015-07-11T02:55:09.983Z,12.9
2015-07-11T02:55:28.608Z,12.9
2015-07-11T02:55:46.983Z,12.9
2015-07-11T02:56:05.548Z,12.9
2015-07-11T02:56:23.970Z,12.9
2015-07-11T02:56:42.485Z,12.9
2015-07-11T02:57:00.940Z,12.8
2015-07-11T02:57:19.550Z,12.8
2015-07-11T02:57:38.050Z,12.8
2015-07-11T02:57:56.550Z,12.9
2015-07-11T02:58:15.005Z,12.9
2015-07-11T02:58:33.567Z,12.9
2015-07-11T02:58:52.020Z,12.9
2015-07-11T02:59:10.522Z,12.8
2015-07-11T02:59:28.929Z,12.8
2015-07-11T02:59:47.679Z,12.7
2015-07-11T03:00:06.054Z,12.7
2015-07-11T03:00:24.603Z,12.7
2015-07-11T03:00:43.149Z,12.7
2015-07-11T03:01:01.774Z,12.7
2015-07-11T03:01:20.183Z,12.8
2015-07-11T03:01:38.667Z,12.8
2015-07-11T03:01:57.073Z,12.7
2015-07-11T03:02:15.558Z,12.7
2015-07-11T03:02:33.967Z,12.8
2015-07-11T03:02:52.561Z,12.8
2015-07-11T03:03:11.123Z,12.8
2015-07-11T03:03:29.749Z,12.8
2015-07-11T03:03:48.280Z,12.9
2015-07-11T03:04:06.655Z,12.9
2015-07-11T03:04:25.077Z,13
2015-07-11T03:04:43.564Z,13
2015-07-11T03:05:02.017Z,12.9
2015-07-11T03:05:20.423Z,12.9
2015-07-11T03:05:39.159Z,12.9
2015-07-11T03:05:57.534Z,12.9
2015-07-11T03:06:16.300Z,12.9
2015-07-11T03:06:34.800Z,12.9
2015-07-11T03:06:53.303Z,12.9
2015-07-11T03:07:12.022Z,12.9
2015-07-11T03:07:30.491Z,12.9
2015-07-11T03:07:49.039Z,12.9
2015-07-11T03:08:07.571Z,12.9
2015-07-11T03:08:25.946Z,12.9
2015-07-11T03:08:44.352Z,12.9
2015-07-11T03:09:02.729Z,12.9
2015-07-11T03:09:21.104Z,12.9
2015-07-11T03:09:39.495Z,12.8
2015-07-11T03:09:58.167Z,12.8
2015-07-11T03:10:17.027Z,12.9
2015-07-11T03:10:35.417Z,12.9
2015-07-11T03:10:53.839Z,12.9
2015-07-11T03:11:12.483Z,12.9
2015-07-11T03:11:30.874Z,12.9
2015-07-11T03:11:49.608Z,12.9
2015-07-11T03:12:08.391Z,12.9
2015-07-11T03:12:26.829Z,12.9
2015-07-11T03:12:45.219Z,12.8
2015-07-11T03:13:03.594Z,12.8
2015-07-11T03:13:22.237Z,12.8
2015-07-11T03:13:40.737Z,12.8
2015-07-11T03:13:59.128Z,12.7
2015-07-11T03:14:17.505Z,12.7
2015-07-11T03:14:35.911Z,12.7
2015-07-11T03:14:54.286Z,12.6
2015-07-11T03:15:12.723Z,12.7
2015-07-11T03:15:31.397Z,12.7
2015-07-11T03:15:49.960Z,12.7
2015-07-11T03:16:08.428Z,12.7
2015-07-11T03:16:26.805Z,12.7
2015-07-11T03:16:45.368Z,12.8
2015-07-11T03:17:03.727Z,12.7
2015-07-11T03:17:22.227Z,12.7
2015-07-11T03:17:40.589Z,12.7
2015-07-11T03:17:59.386Z,12.6
2015-07-11T03:18:17.901Z,12.7
2015-07-11T03:18:36.514Z,12.6
2015-07-11T03:18:55.139Z,12.6
2015-07-11T03:19:13.514Z,12.6
2015-07-11T03:19:31.889Z,12.6
2015-07-11T03:19:50.327Z,12.7
2015-07-11T03:20:09.108Z,12.6
2015-07-11T03:20:27.640Z,12.6
2015-07-11T03:20:46.001Z,12.6
2015-07-11T03:21:04.579Z,12.6
2015-07-11T03:21:22.954Z,12.5
2015-07-11T03:21:40.970Z,12.5
2015-07-11T03:21:59.597Z,12.5
2015-07-11T03:22:17.972Z,12.5
2015-07-11T03:22:36.378Z,12.5
2015-07-11T03:22:55.162Z,12.5
2015-07-11T03:23:13.756Z,12.6
2015-07-11T03:23:32.303Z,12.6
2015-07-11T03:23:50.897Z,12.6
2015-07-11T03:24:09.414Z,12.5
2015-07-11T03:24:28.227Z,12.5
2015-07-11T03:24:46.492Z,12.6
2015-07-11T03:25:04.931Z,12.6
2015-07-11T03:25:23.431Z,12.6
2015-07-11T03:25:42.040Z,12.6
2015-07-11T03:26:00.806Z,12.6
2015-07-11T03:26:19.293Z,12.7
2015-07-11T03:26:37.809Z,12.7
2015-07-11T03:26:56.199Z,12.8
2015-07-11T03:27:14.858Z,12.8
2015-07-11T03:27:33.358Z,12.9
2015-07-11T03:27:51.733Z,12.8
2015-07-11T03:28:10.123Z,12.8
2015-07-11T03:28:28.593Z,12.8
2015-07-11T03:28:47.109Z,12.8
2015-07-11T03:29:05.531Z,12.7
2015-07-11T03:29:24.174Z,12.7
2015-07-11T03:29:42.565Z,12.7
2015-07-11T03:30:01.002Z,12.7
2015-07-11T03:30:19.659Z,12.7
2015-07-11T03:30:38.082Z,12.7
2015-07-11T03:30:56.848Z,12.7
2015-07-11T03:31:15.473Z,12.6
2015-07-11T03:31:33.867Z,12.6
2015-07-11T03:31:52.289Z,12.6
2015-07-11T03:32:10.867Z,12.6
2015-07-11T03:32:29.492Z,12.6
2015-07-11T03:32:48.086Z,12.5
2015-07-11T03:33:06.602Z,12.4
2015-07-11T03:33:25.008Z,12.3
2015-07-11T03:33:43.448Z,12.3
2015-07-11T03:34:01.838Z,12.4
2015-07-11T03:34:20.245Z,12.4
2015-07-11T03:34:38.776Z,12.4
2015-07-11T03:34:57.419Z,12.4
2015-07-11T03:35:15.840Z,12.4
2015-07-11T03:35:34.387Z,12.4
2015-07-11T03:35:52.968Z,12.4
2015-07-11T03:36:11.640Z,12.4
2015-07-11T03:36:30.234Z,12.4
2015-07-11T03:36:48.765Z,12.4
2015-07-11T03:37:07.220Z,12.4
2015-07-11T03:37:25.674Z,12.4
2015-07-11T03:37:44.252Z,12.4
2015-07-11T03:38:02.831Z,12.4
2015-07-11T03:38:21.518Z,12.4
2015-07-11T03:38:40.050Z,12.5
2015-07-11T03:38:58.503Z,12.4
2015-07-11T03:39:17.145Z,12.4
2015-07-11T03:39:35.786Z,12.4
2015-07-11T03:39:54.427Z,12.4
2015-07-11T03:40:12.992Z,12.3
2015-07-11T03:40:31.633Z,12.3
2015-07-11T03:40:50.133Z,12.3
2015-07-11T03:41:08.539Z,12.4
2015-07-11T03:41:27.135Z,12.4
2015-07-11T03:41:45.494Z,12.4
2015-07-11T03:42:04.150Z,12.4
2015-07-11T03:42:22.621Z,12.3
2015-07-11T03:42:40.996Z,12.3
2015-07-11T03:42:59.637Z,12.3
2015-07-11T03:43:18.293Z,12.2
2015-07-11T03:43:36.920Z,12.2
2015-07-11T03:43:55.357Z,12.2
2015-07-11T03:44:13.889Z,12.2
2015-07-11T03:44:32.376Z,12.2
2015-07-11T03:44:50.751Z,12.3
2015-07-11T03:45:09.142Z,12.3
2015-07-11T03:45:27.626Z,12.3
2015-07-11T03:45:46.252Z,12.3
2015-07-11T03:46:04.658Z,12.4
2015-07-11T03:46:23.127Z,12.3
2015-07-11T03:46:41.551Z,12.3
2015-07-11T03:47:00.363Z,12.3
2015-07-11T03:47:18.910Z,12.4
2015-07-11T03:47:37.473Z,12.4
2015-07-11T03:47:55.975Z,12.4
2015-07-11T03:48:14.631Z,12.4
2015-07-11T03:48:33.194Z,12.4
2015-07-11T03:48:51.555Z,12.3
2015-07-11T03:49:09.930Z,12.4
2015-07-11T03:49:28.321Z,12.4
2015-07-11T03:49:46.805Z,12.4
2015-07-11T03:50:05.432Z,12.5
2015-07-11T03:50:23.901Z,12.5
2015-07-11T03:50:42.401Z,12.5
2015-07-11T03:51:01.091Z,12.6
2015-07-11T03:51:19.685Z,12.6
2015-07-11T03:51:38.091Z,12.6
2015-07-11T03:51:56.529Z,12.6
2015-07-11T03:52:15.187Z,12.6
2015-07-11T03:52:33.890Z,12.7
2015-07-11T03:52:52.328Z,12.6
2015-07-11T03:53:10.876Z,12.6
2015-07-11T03:53:29.533Z,12.5
2015-07-11T03:53:48.095Z,12.5
2015-07-11T03:54:06.845Z,12.5
2015-07-11T03:54:25.378Z,12.4
2015-07-11T03:54:43.878Z,12.5
2015-07-11T03:55:02.519Z,12.4
2015-07-11T03:55:21.037Z,12.4
2015-07-11T03:55:39.865Z,12.5
2015-07-11T03:55:58.427Z,12.5
2015-07-11T03:56:16.880Z,12.5
2015-07-11T03:56:35.492Z,12.4
2015-07-11T03:56:54.211Z,12.5
2015-07-11T03:57:12.789Z,12.5
2015-07-11T03:57:31.462Z,12.5
2015-07-11T03:57:49.868Z,12.6
2015-07-11T03:58:08.399Z,12.6
2015-07-11T03:58:26.777Z,12.7
2015-07-11T03:58:45.527Z,12.7
2015-07-11T03:59:04.058Z,12.6
2015-07-11T03:59:22.730Z,12.7
2015-07-11T03:59:41.092Z,12.7
2015-07-11T03:59:59.498Z,12.7
2015-07-11T04:00:18.092Z,12.7
2015-07-11T04:00:36.344Z,12.7
2015-07-11T04:00:54.703Z,12.8
2015-07-11T04:01:13.156Z,12.7
2015-07-11T04:01:30.969Z,12.7
2015-07-11T04:01:49.408Z,12.7
2015-07-11T04:02:07.799Z,12.8
2015-07-11T04:02:26.267Z,12.8
2015-07-11T04:02:44.707Z,12.8
2015-07-11T04:03:03.160Z,12.8
2015-07-11T04:03:21.551Z,12.8
2015-07-11T04:03:40.019Z,12.8
2015-07-11T04:03:58.521Z,12.7
2015-07-11T04:04:17.131Z,12.6
2015-07-11T04:04:35.662Z,12.7
2015-07-11T04:04:53.914Z,12.7
2015-07-11T04:05:12.414Z,12.7
2015-07-11T04:05:30.945Z,12.7
2015-07-11T04:05:49.602Z,12.7
2015-07-11T04:06:08.073Z,12.6
2015-07-11T04:06:26.573Z,12.6
2015-07-11T04:06:44.933Z,12.6
2015-07-11T04:07:03.482Z,12.7
2015-07-11T04:07:22.060Z,12.7
2015-07-11T04:07:40.935Z,12.7
2015-07-11T04:07:59.310Z,12.7